• Join FlightAware (Why Join?)
  • Login
  • US Flag 
02:14AM EDT


 

Airport Tracker/Info


-or-


 

Live Flight TrackerFlight Track Log ✈ UAL5908 ✈ 04-May-2013 ✈ KATL - KIAD

Flight Track Log - Related Links

Times and Time Zones

All times are in EDT time to prevent confusion due to time zone crossing. See the UAL5908 flight status page for this flight to view local times or setup timezone preferences in your user account.

Time Position Orientation Groundspeed Altitude Reporting Facility
EDT Latitude Longitude Course Direction KTS MPH feet Rate Location/Type
05:53AM 33.6500 -84.3833 99° East 152 175 2,400  Level Atlanta TRACON
05:54AM 33.6667 -84.3333 68° East 195 224 3,900 1,560 Climbing Atlanta TRACON
05:55AM 33.6833 -84.2500 76° East 238 274 5,800 1,980 Climbing Atlanta TRACON
05:56AM 33.8423 -84.1836 73° East  Level Estimated
05:56AM 33.7167 -84.1833 59° Northeast 251 289 7,900  Level Atlanta TRACON
05:57AM 33.9107 -84.1020 54° Northeast  Level Estimated
05:57AM 33.7503 -84.1189 58° Northeast 262 302 9,600  Level Atlanta Center
05:58AM 33.8950 -83.9874 99° East  Level FlightAware Approximate
05:58AM 33.7881 -84.0364 61° Northeast 262 302 11,100  Level Atlanta Center
05:59AM 33.8792 -83.8730 99° East  Level FlightAware Approximate
05:59AM 33.8275 -83.9464 62° Northeast 275 316 12,200  Level Atlanta Center
06:00AM 33.8672 -83.8536 63° Northeast 300 345 14,100 1,500 Climbing Atlanta Center
06:01AM 33.9128 -83.7533 61° Northeast 316 364 15,200 1,500 Climbing Atlanta Center
06:02AM 33.9647 -83.6631 55° Northeast 326 375 17,100 1,800 Climbing Atlanta Center
06:03AM 34.0208 -83.5725 53° Northeast 331 381 18,900 1,740 Climbing Atlanta Center
06:04AM 34.0769 -83.4869 52° Northeast 326 375 20,600 1,320 Climbing Atlanta Center
06:05AM 34.1328 -83.3939 54° Northeast 326 375 21,600 900 Climbing Atlanta Center
06:06AM 34.1867 -83.3081 53° Northeast 336 387 22,500 900 Climbing Atlanta Center
06:07AM 34.2486 -83.2069 53° Northeast 358 412 23,500 1,020 Climbing Atlanta Center
06:08AM 34.3125 -83.1033 53° Northeast 374 430 24,600 1,020 Climbing Atlanta Center
06:09AM 34.3764 -82.9994 53° Northeast 380 437 25,600 960 Climbing Atlanta Center
06:10AM 34.4422 -82.8928 53° Northeast 388 447 26,600 960 Climbing Atlanta Center
06:11AM 34.5081 -82.7886 52° Northeast 388 447 27,600 1,020 Climbing Atlanta Center
06:12AM 34.5736 -82.6842 53° Northeast 388 447 28,700 1,020 Climbing Atlanta Center
06:13AM 34.6411 -82.5719 54° Northeast 388 447 29,700 960 Climbing Atlanta Center
06:14AM 34.7067 -82.4647 53° Northeast 387 445 30,700 960 Climbing Atlanta Center
06:15AM 34.7719 -82.3572 54° Northeast 393 452 31,700 1,020 Climbing Atlanta Center
06:16AM 34.8372 -82.2522 53° Northeast 393 452 32,800 960 Climbing Atlanta Center
06:17AM 34.9025 -82.1419 54° Northeast 393 452 33,700 960 Climbing Atlanta Center
06:18AM 34.9694 -82.0339 53° Northeast 393 452 34,800 600 Climbing Atlanta Center
06:19AM 35.0347 -81.9308 52° Northeast 388 447 35,000 60 Climbing Atlanta Center
06:20AM 35.0972 -81.8075 58° Northeast 408 470 35,000  Level Atlanta Center
06:21AM 35.1636 -81.6836 57° Northeast 428 493 35,000  Level Atlanta Center
06:22AM 35.2300 -81.5572 57° Northeast 436 502 35,000  Level Atlanta Center
06:23AM 35.2983 -81.4278 57° Northeast 441 507 35,000  Level Atlanta Center
06:24AM 35.3664 -81.2933 58° Northeast 451 519 35,000  Level Atlanta Center
06:25AM 35.4319 -81.1611 59° Northeast 457 526 35,000  Level Atlanta Center
06:26AM 35.5019 -81.0286 57° Northeast 457 526 35,000  Level Atlanta Center
06:27AM 35.5717 -80.9008 56° Northeast 457 526 35,000  Level Atlanta Center
06:28AM 35.6394 -80.7731 57° Northeast 452 520 35,000  Level Atlanta Center
06:29AM 35.7008 -80.6531 58° Northeast 452 520 35,000  Level Atlanta Center
06:30AM 35.7681 -80.5222 58° Northeast 452 520 35,000 -60 Level Atlanta Center
06:32AM 35.8953 -80.2739 58° Northeast 449 517 34,900 -420 Descending Washington Center
06:33AM 35.9611 -80.1394 59° Northeast 443 510 33,900 -960 Descending Washington Center
06:34AM 36.0306 -80.0097 56° Northeast 443 510 33,000 -480 Descending Washington Center
06:35AM 36.1022 -79.8800 56° Northeast 448 516 33,000  Level Washington Center
06:36AM 36.1669 -79.7600 56° Northeast 448 516 33,000  Level Washington Center
06:37AM 36.2467 -79.6228 54° Northeast 448 516 33,000  Level Washington Center
06:38AM 36.3111 -79.5050 56° Northeast 448 516 33,000 -540 Level Washington Center
06:39AM 36.3908 -79.3617 55° Northeast 454 522 32,000 -1,260 Descending Washington Center
06:40AM 36.4636 -79.2336 55° Northeast 454 522 30,600 -1,440 Descending Washington Center
06:41AM 36.5364 -79.1050 55° Northeast 454 522 29,200 -1,560 Descending Washington Center
06:42AM 36.6111 -78.9739 55° Northeast 454 522 27,500 -1,920 Descending Washington Center
06:43AM 36.6728 -78.8550 57° Northeast 454 522 25,400 -1,320 Descending Washington Center
06:44AM 36.7472 -78.7258 54° Northeast 454 522 25,000 -240 Descending Washington Center
06:45AM 36.8153 -78.5961 57° Northeast 454 522 25,000  Level Washington Center
06:46AM 36.8939 -78.4564 55° Northeast 454 522 25,000  Level Washington Center
06:47AM 36.9656 -78.3267 55° Northeast 449 517 25,000  Level Washington Center
06:48AM 37.0456 -78.2097 49° Northeast 449 517 25,000  Level Washington Center
06:49AM 37.1514 -78.1403 28° Northeast 425 489 25,000  Level Washington Center
06:50AM 37.2614 -78.0683 27° Northeast 431 496 25,000  Level Washington Center
06:51AM 37.3711 -77.9961 28° Northeast 436 502 25,000 -360 Level Washington Center
06:52AM 37.4811 -77.9211 28° Northeast 436 502 24,300 -1,080 Descending Washington Center
06:53AM 37.5889 -77.8483 28° Northeast 441 507 22,900 -1,680 Descending Washington Center
06:54AM 37.6944 -77.7753 29° Northeast 441 507 21,000 -2,220 Descending Washington Center
06:55AM 37.7958 -77.7072 28° Northeast 431 496 18,600 -2,400 Descending Washington Center
06:56AM 37.8886 -77.6442 28° Northeast 400 460 16,200 -2,460 Descending Washington Center
06:57AM 37.9775 -77.5833 28° Northeast 372 428 13,600 -2,340 Descending Washington Center
06:58AM 38.0553 -77.5378 25° Northeast 349 402 11,600 -1,740 Descending Washington Center
06:59AM 38.1356 -77.4819 29° Northeast 336 387 10,100 -840 Descending Washington Center
07:00AM 38.2050 -77.4336 29° Northeast 308 354 10,000 -840 Descending Washington Center
07:01AM 38.2722 -77.3956 24° Northeast 279 321 8,500 -1,380 Descending Washington Center
07:02AM 38.3397 -77.3572 24° Northeast 267 307 7,300 -1,320 Descending Washington Center
07:03AM 38.4125 -77.3592 359° North 256 295 6,000 -1,140 Descending Washington Center
07:04AM 38.4856 -77.3636 357° North 256 295 5,100 -540 Descending Washington Center
07:05AM 38.5583 -77.3678 357° North 256 295 5,000 -300 Descending Washington Center
07:06AM 38.6292 -77.3669 North 256 295 4,500 -480 Descending Washington Center
07:07AM 38.7003 -77.3633 North 256 295 4,100 -240 Descending Washington Center
07:08AM 38.7833 -77.3500 North 255 293 4,100  Level Potomac TRACON
07:09AM 38.8667 -77.3500 360° North 259 298 4,100  Level Potomac TRACON
07:10AM 38.9333 -77.3500 360° North 249 287 4,100  Level Potomac TRACON
07:11AM 38.9833 -77.3500 360° North 239 275 4,100 -480 Level Potomac TRACON
07:12AM 39.0500 -77.3500 360° North 244 281 3,300 -540 Descending Potomac TRACON
07:13AM 39.1167 -77.3500 360° North 215 247 3,100 -180 Descending Potomac TRACON
07:14AM 39.1667 -77.3500 360° North 208 239 3,000 -420 Descending Potomac TRACON
07:15AM 39.1833 -77.4167 288° West 224 258 2,400 -480 Descending Potomac TRACON
07:16AM 39.1333 -77.4333 194° South 193 222 2,100 -180 Descending Potomac TRACON
07:17AM 39.0833 -77.4333 180° South 179 206 2,100  Level Potomac TRACON